sensor_id;sensor_type;location;lat;lon;timestamp;P1;durP1;ratioP1;P2;durP2;ratioP2
48263;SDS011;34086;51.076;13.722;2023-05-09T00:00:27;7.38;;;6.00;;
48263;SDS011;34086;51.076;13.722;2023-05-09T00:01:28;9.30;;;6.20;;
48263;SDS011;34086;51.076;13.722;2023-05-09T00:02:30;8.13;;;5.93;;
48263;SDS011;34086;51.076;13.722;2023-05-09T00:03:33;8.82;;;5.97;;
48263;SDS011;34086;51.076;13.722;2023-05-09T00:04:34;8.25;;;6.20;;
48263;SDS011;34086;51.076;13.722;2023-05-09T00:05:34;8.30;;;5.88;;
48263;SDS011;34086;51.076;13.722;2023-05-09T00:06:35;9.70;;;6.10;;
48263;SDS011;34086;51.076;13.722;2023-05-09T00:07:36;8.52;;;5.95;;
48263;SDS011;34086;51.076;13.722;2023-05-09T00:08:37;8.15;;;5.85;;
48263;SDS011;34086;51.076;13.722;2023-05-09T00:09:38;7.07;;;5.90;;
48263;SDS011;34086;51.076;13.722;2023-05-09T00:10:39;8.18;;;5.95;;
48263;SDS011;34086;51.076;13.722;2023-05-09T00:11:39;8.85;;;5.68;;
48263;SDS011;34086;51.076;13.722;2023-05-09T00:12:40;6.90;;;5.80;;
48263;SDS011;34086;51.076;13.722;2023-05-09T00:13:42;8.95;;;6.07;;
48263;SDS011;34086;51.076;13.722;2023-05-09T00:14:43;7.63;;;5.93;;
48263;SDS011;34086;51.076;13.722;2023-05-09T00:15:44;8.48;;;5.97;;
48263;SDS011;34086;51.076;13.722;2023-05-09T00:16:45;8.10;;;6.13;;
48263;SDS011;34086;51.076;13.722;2023-05-09T00:17:46;10.00;;;6.00;;
48263;SDS011;34086;51.076;13.722;2023-05-09T00:18:46;9.18;;;5.90;;
48263;SDS011;34086;51.076;13.722;2023-05-09T00:19:47;7.20;;;6.00;;
48263;SDS011;34086;51.076;13.722;2023-05-09T00:20:49;9.57;;;6.10;;
48263;SDS011;34086;51.076;13.722;2023-05-09T00:21:49;6.82;;;5.43;;
48263;SDS011;34086;51.076;13.722;2023-05-09T00:22:50;7.45;;;6.22;;
48263;SDS011;34086;51.076;13.722;2023-05-09T00:23:51;8.00;;;6.20;;
48263;SDS011;34086;51.076;13.722;2023-05-09T00:24:52;7.85;;;6.15;;
48263;SDS011;34086;51.076;13.722;2023-05-09T00:25:52;9.38;;;6.25;;
48263;SDS011;34086;51.076;13.722;2023-05-09T00:26:53;6.60;;;5.90;;
48263;SDS011;34086;51.076;13.722;2023-05-09T00:27:53;7.63;;;5.70;;
48263;SDS011;34086;51.076;13.722;2023-05-09T00:28:54;6.28;;;5.57;;
48263;SDS011;34086;51.076;13.722;2023-05-09T00:29:54;8.43;;;5.75;;
48263;SDS011;34086;51.076;13.722;2023-05-09T00:30:55;8.35;;;6.18;;
48263;SDS011;34086;51.076;13.722;2023-05-09T00:31:56;7.60;;;5.85;;
48263;SDS011;34086;51.076;13.722;2023-05-09T00:32:57;8.23;;;6.30;;
48263;SDS011;34086;51.076;13.722;2023-05-09T00:33:57;8.30;;;6.03;;
48263;SDS011;34086;51.076;13.722;2023-05-09T00:34:58;9.02;;;6.10;;
48263;SDS011;34086;51.076;13.722;2023-05-09T00:35:58;8.40;;;5.93;;
48263;SDS011;34086;51.076;13.722;2023-05-09T00:36:59;7.00;;;5.70;;
48263;SDS011;34086;51.076;13.722;2023-05-09T00:38:00;6.90;;;5.60;;
48263;SDS011;34086;51.076;13.722;2023-05-09T00:39:01;8.38;;;5.75;;
48263;SDS011;34086;51.076;13.722;2023-05-09T00:40:02;7.45;;;5.97;;
48263;SDS011;34086;51.076;13.722;2023-05-09T00:41:04;8.18;;;6.00;;
48263;SDS011;34086;51.076;13.722;2023-05-09T00:42:05;8.00;;;5.90;;
48263;SDS011;34086;51.076;13.722;2023-05-09T00:43:05;9.63;;;5.72;;
48263;SDS011;34086;51.076;13.722;2023-05-09T00:44:06;10.57;;;6.00;;
48263;SDS011;34086;51.076;13.722;2023-05-09T00:45:07;9.75;;;6.63;;
48263;SDS011;34086;51.076;13.722;2023-05-09T00:46:08;10.15;;;6.25;;
48263;SDS011;34086;51.076;13.722;2023-05-09T00:47:09;13.05;;;6.25;;
48263;SDS011;34086;51.076;13.722;2023-05-09T00:48:09;8.38;;;6.53;;
48263;SDS011;34086;51.076;13.722;2023-05-09T00:49:10;8.32;;;6.07;;
48263;SDS011;34086;51.076;13.722;2023-05-09T00:50:11;10.85;;;6.10;;
48263;SDS011;34086;51.076;13.722;2023-05-09T00:51:12;10.30;;;6.18;;
48263;SDS011;34086;51.076;13.722;2023-05-09T00:52:13;9.30;;;6.22;;
48263;SDS011;34086;51.076;13.722;2023-05-09T00:53:14;6.70;;;5.57;;
48263;SDS011;34086;51.076;13.722;2023-05-09T00:54:15;9.43;;;6.13;;
48263;SDS011;34086;51.076;13.722;2023-05-09T00:55:16;8.07;;;6.05;;
48263;SDS011;34086;51.076;13.722;2023-05-09T00:56:17;9.27;;;6.40;;
48263;SDS011;34086;51.076;13.722;2023-05-09T00:57:18;10.73;;;5.88;;
48263;SDS011;34086;51.076;13.722;2023-05-09T00:58:19;8.60;;;6.35;;
48263;SDS011;34086;51.076;13.722;2023-05-09T00:59:20;10.45;;;6.68;;
48263;SDS011;34086;51.076;13.722;2023-05-09T01:00:21;9.88;;;6.10;;
48263;SDS011;34086;51.076;13.722;2023-05-09T01:01:21;8.98;;;6.20;;
48263;SDS011;34086;51.076;13.722;2023-05-09T01:02:22;10.45;;;6.43;;
48263;SDS011;34086;51.076;13.722;2023-05-09T01:03:23;8.52;;;6.38;;
48263;SDS011;34086;51.076;13.722;2023-05-09T01:04:23;9.45;;;6.50;;
48263;SDS011;34086;51.076;13.722;2023-05-09T01:05:26;7.57;;;6.10;;
48263;SDS011;34086;51.076;13.722;2023-05-09T01:06:35;7.93;;;6.07;;
48263;SDS011;34086;51.076;13.722;2023-05-09T01:07:45;7.80;;;6.28;;
48263;SDS011;34086;51.076;13.722;2023-05-09T01:08:55;9.15;;;6.13;;
48263;SDS011;34086;51.076;13.722;2023-05-09T01:10:04;7.20;;;6.30;;
48263;SDS011;34086;51.076;13.722;2023-05-09T01:11:51;9.00;;;6.40;;
48263;SDS011;34086;51.076;13.722;2023-05-09T01:12:36;8.02;;;6.43;;
48263;SDS011;34086;51.076;13.722;2023-05-09T01:13:48;7.38;;;6.55;;
48263;SDS011;34086;51.076;13.722;2023-05-09T01:15:10;12.73;;;6.57;;
48263;SDS011;34086;51.076;13.722;2023-05-09T01:16:28;8.10;;;5.90;;
48263;SDS011;34086;51.076;13.722;2023-05-09T01:17:42;9.18;;;6.47;;
48263;SDS011;34086;51.076;13.722;2023-05-09T01:18:54;11.38;;;6.35;;
48263;SDS011;34086;51.076;13.722;2023-05-09T01:20:20;8.52;;;6.35;;
48263;SDS011;34086;51.076;13.722;2023-05-09T01:21:33;10.00;;;6.40;;
48263;SDS011;34086;51.076;13.722;2023-05-09T01:22:34;10.75;;;6.65;;
48263;SDS011;34086;51.076;13.722;2023-05-09T01:24:55;9.10;;;7.03;;
48263;SDS011;34086;51.076;13.722;2023-05-09T01:26:26;8.85;;;6.22;;
48263;SDS011;34086;51.076;13.722;2023-05-09T01:27:41;11.45;;;6.72;;
48263;SDS011;34086;51.076;13.722;2023-05-09T01:30:18;10.70;;;6.88;;
48263;SDS011;34086;51.076;13.722;2023-05-09T01:31:20;8.48;;;6.68;;
48263;SDS011;34086;51.076;13.722;2023-05-09T01:32:23;7.88;;;6.43;;
48263;SDS011;34086;51.076;13.722;2023-05-09T01:33:26;7.78;;;6.50;;
48263;SDS011;34086;51.076;13.722;2023-05-09T01:34:30;8.38;;;6.72;;
48263;SDS011;34086;51.076;13.722;2023-05-09T01:35:34;10.63;;;6.57;;
48263;SDS011;34086;51.076;13.722;2023-05-09T01:36:36;10.73;;;6.32;;
48263;SDS011;34086;51.076;13.722;2023-05-09T01:37:41;10.32;;;6.55;;
48263;SDS011;34086;51.076;13.722;2023-05-09T01:38:43;8.55;;;6.68;;
48263;SDS011;34086;51.076;13.722;2023-05-09T01:39:51;10.98;;;6.50;;
48263;SDS011;34086;51.076;13.722;2023-05-09T01:40:54;10.63;;;6.63;;
48263;SDS011;34086;51.076;13.722;2023-05-09T01:41:57;9.82;;;6.38;;
48263;SDS011;34086;51.076;13.722;2023-05-09T01:43:03;11.13;;;6.75;;
48263;SDS011;34086;51.076;13.722;2023-05-09T01:44:08;8.38;;;6.22;;
48263;SDS011;34086;51.076;13.722;2023-05-09T01:45:11;8.98;;;6.72;;
48263;SDS011;34086;51.076;13.722;2023-05-09T01:46:13;11.55;;;6.82;;
48263;SDS011;34086;51.076;13.722;2023-05-09T01:47:17;10.75;;;6.45;;
48263;SDS011;34086;51.076;13.722;2023-05-09T01:48:19;9.15;;;6.60;;
48263;SDS011;34086;51.076;13.722;2023-05-09T01:49:25;7.53;;;6.28;;
48263;SDS011;34086;51.076;13.722;2023-05-09T01:50:29;9.02;;;6.43;;
48263;SDS011;34086;51.076;13.722;2023-05-09T01:51:31;12.80;;;7.30;;
48263;SDS011;34086;51.076;13.722;2023-05-09T01:52:33;9.82;;;6.32;;
48263;SDS011;34086;51.076;13.722;2023-05-09T01:53:35;10.30;;;6.22;;
48263;SDS011;34086;51.076;13.722;2023-05-09T01:54:36;8.40;;;6.60;;
48263;SDS011;34086;51.076;13.722;2023-05-09T01:55:38;8.02;;;6.30;;
48263;SDS011;34086;51.076;13.722;2023-05-09T01:56:40;9.07;;;6.35;;
48263;SDS011;34086;51.076;13.722;2023-05-09T01:57:42;12.00;;;7.00;;
48263;SDS011;34086;51.076;13.722;2023-05-09T01:58:44;10.45;;;6.32;;
48263;SDS011;34086;51.076;13.722;2023-05-09T01:59:47;8.82;;;6.55;;
48263;SDS011;34086;51.076;13.722;2023-05-09T02:00:49;7.95;;;6.38;;
48263;SDS011;34086;51.076;13.722;2023-05-09T02:01:50;11.63;;;6.28;;
48263;SDS011;34086;51.076;13.722;2023-05-09T02:02:54;11.13;;;7.10;;
48263;SDS011;34086;51.076;13.722;2023-05-09T02:03:56;12.18;;;6.50;;
48263;SDS011;34086;51.076;13.722;2023-05-09T02:04:57;10.38;;;6.60;;
48263;SDS011;34086;51.076;13.722;2023-05-09T02:05:59;8.90;;;6.50;;
48263;SDS011;34086;51.076;13.722;2023-05-09T02:07:03;8.98;;;6.88;;
48263;SDS011;34086;51.076;13.722;2023-05-09T02:08:05;9.35;;;6.75;;
48263;SDS011;34086;51.076;13.722;2023-05-09T02:09:07;12.88;;;6.90;;
48263;SDS011;34086;51.076;13.722;2023-05-09T02:10:08;11.88;;;6.68;;
48263;SDS011;34086;51.076;13.722;2023-05-09T02:11:10;9.10;;;6.20;;
48263;SDS011;34086;51.076;13.722;2023-05-09T02:12:11;10.40;;;6.85;;
48263;SDS011;34086;51.076;13.722;2023-05-09T02:13:11;8.45;;;6.15;;
48263;SDS011;34086;51.076;13.722;2023-05-09T02:14:12;10.55;;;6.88;;
48263;SDS011;34086;51.076;13.722;2023-05-09T02:15:13;8.45;;;6.72;;
48263;SDS011;34086;51.076;13.722;2023-05-09T02:16:14;10.15;;;6.47;;
48263;SDS011;34086;51.076;13.722;2023-05-09T02:17:15;11.02;;;6.55;;
48263;SDS011;34086;51.076;13.722;2023-05-09T02:18:16;9.60;;;6.65;;
48263;SDS011;34086;51.076;13.722;2023-05-09T02:19:17;9.70;;;6.85;;
48263;SDS011;34086;51.076;13.722;2023-05-09T02:20:18;8.45;;;6.25;;
48263;SDS011;34086;51.076;13.722;2023-05-09T02:21:18;8.32;;;6.60;;
48263;SDS011;34086;51.076;13.722;2023-05-09T02:22:19;8.57;;;6.20;;
48263;SDS011;34086;51.076;13.722;2023-05-09T02:23:20;9.18;;;6.47;;
48263;SDS011;34086;51.076;13.722;2023-05-09T02:24:21;10.77;;;6.50;;
48263;SDS011;34086;51.076;13.722;2023-05-09T02:25:21;8.93;;;6.90;;
48263;SDS011;34086;51.076;13.722;2023-05-09T02:26:23;9.98;;;6.85;;
48263;SDS011;34086;51.076;13.722;2023-05-09T02:27:24;8.25;;;6.40;;
48263;SDS011;34086;51.076;13.722;2023-05-09T02:28:26;10.60;;;6.68;;
48263;SDS011;34086;51.076;13.722;2023-05-09T02:29:29;9.02;;;6.63;;
48263;SDS011;34086;51.076;13.722;2023-05-09T02:30:40;10.15;;;6.90;;
48263;SDS011;34086;51.076;13.722;2023-05-09T02:31:43;8.98;;;6.07;;
48263;SDS011;34086;51.076;13.722;2023-05-09T02:32:46;9.40;;;6.10;;
48263;SDS011;34086;51.076;13.722;2023-05-09T02:33:49;9.55;;;6.60;;
48263;SDS011;34086;51.076;13.722;2023-05-09T02:34:52;8.98;;;6.45;;
48263;SDS011;34086;51.076;13.722;2023-05-09T02:35:54;9.63;;;6.68;;
48263;SDS011;34086;51.076;13.722;2023-05-09T02:36:56;10.05;;;6.90;;
48263;SDS011;34086;51.076;13.722;2023-05-09T02:37:57;9.60;;;6.90;;
48263;SDS011;34086;51.076;13.722;2023-05-09T02:38:59;9.65;;;6.28;;
48263;SDS011;34086;51.076;13.722;2023-05-09T02:40:04;8.93;;;6.55;;
48263;SDS011;34086;51.076;13.722;2023-05-09T02:41:11;9.60;;;6.57;;
48263;SDS011;34086;51.076;13.722;2023-05-09T02:42:17;9.70;;;6.95;;
48263;SDS011;34086;51.076;13.722;2023-05-09T02:43:21;8.02;;;6.60;;
48263;SDS011;34086;51.076;13.722;2023-05-09T02:44:22;10.15;;;6.43;;
48263;SDS011;34086;51.076;13.722;2023-05-09T02:45:22;9.57;;;6.47;;
48263;SDS011;34086;51.076;13.722;2023-05-09T02:46:23;9.18;;;6.75;;
48263;SDS011;34086;51.076;13.722;2023-05-09T02:47:24;9.02;;;6.25;;
48263;SDS011;34086;51.076;13.722;2023-05-09T02:48:25;13.48;;;6.63;;
48263;SDS011;34086;51.076;13.722;2023-05-09T02:49:25;8.45;;;6.50;;
48263;SDS011;34086;51.076;13.722;2023-05-09T02:50:26;8.88;;;6.45;;
48263;SDS011;34086;51.076;13.722;2023-05-09T02:51:26;8.30;;;6.45;;
48263;SDS011;34086;51.076;13.722;2023-05-09T02:52:27;8.55;;;6.28;;
48263;SDS011;34086;51.076;13.722;2023-05-09T02:53:28;9.45;;;6.00;;
48263;SDS011;34086;51.076;13.722;2023-05-09T02:54:28;8.55;;;6.53;;
48263;SDS011;34086;51.076;13.722;2023-05-09T02:55:29;10.02;;;6.57;;
48263;SDS011;34086;51.076;13.722;2023-05-09T02:56:30;9.70;;;6.30;;
48263;SDS011;34086;51.076;13.722;2023-05-09T02:57:31;9.13;;;6.70;;
48263;SDS011;34086;51.076;13.722;2023-05-09T02:58:32;8.85;;;6.30;;
48263;SDS011;34086;51.076;13.722;2023-05-09T02:59:32;8.38;;;6.50;;
48263;SDS011;34086;51.076;13.722;2023-05-09T03:00:35;10.15;;;5.95;;
48263;SDS011;34086;51.076;13.722;2023-05-09T03:01:38;11.43;;;6.13;;
48263;SDS011;34086;51.076;13.722;2023-05-09T03:02:39;9.82;;;6.30;;
48263;SDS011;34086;51.076;13.722;2023-05-09T03:03:44;7.70;;;6.22;;
48263;SDS011;34086;51.076;13.722;2023-05-09T03:04:46;11.13;;;6.60;;
48263;SDS011;34086;51.076;13.722;2023-05-09T03:05:46;7.63;;;6.03;;
48263;SDS011;34086;51.076;13.722;2023-05-09T03:06:47;9.48;;;6.15;;
48263;SDS011;34086;51.076;13.722;2023-05-09T03:07:48;9.02;;;6.30;;
48263;SDS011;34086;51.076;13.722;2023-05-09T03:08:50;9.85;;;6.82;;
48263;SDS011;34086;51.076;13.722;2023-05-09T03:09:51;9.23;;;6.60;;
48263;SDS011;34086;51.076;13.722;2023-05-09T03:10:51;9.43;;;6.57;;
48263;SDS011;34086;51.076;13.722;2023-05-09T03:11:52;9.48;;;6.53;;
48263;SDS011;34086;51.076;13.722;2023-05-09T03:12:53;8.55;;;6.43;;
48263;SDS011;34086;51.076;13.722;2023-05-09T03:13:54;8.88;;;6.65;;
48263;SDS011;34086;51.076;13.722;2023-05-09T03:14:55;12.63;;;6.72;;
48263;SDS011;34086;51.076;13.722;2023-05-09T03:15:56;7.75;;;6.20;;
48263;SDS011;34086;51.076;13.722;2023-05-09T03:16:56;8.40;;;6.35;;
48263;SDS011;34086;51.076;13.722;2023-05-09T03:18:03;9.77;;;6.38;;
48263;SDS011;34086;51.076;13.722;2023-05-09T03:19:03;9.18;;;6.30;;
48263;SDS011;34086;51.076;13.722;2023-05-09T03:20:04;8.93;;;6.50;;
48263;SDS011;34086;51.076;13.722;2023-05-09T03:21:06;9.38;;;6.25;;
48263;SDS011;34086;51.076;13.722;2023-05-09T03:22:09;8.65;;;6.40;;
48263;SDS011;34086;51.076;13.722;2023-05-09T03:23:16;12.75;;;6.07;;
48263;SDS011;34086;51.076;13.722;2023-05-09T03:24:17;10.05;;;6.22;;
48263;SDS011;34086;51.076;13.722;2023-05-09T03:25:17;9.38;;;6.25;;
48263;SDS011;34086;51.076;13.722;2023-05-09T03:26:18;9.05;;;6.38;;
48263;SDS011;34086;51.076;13.722;2023-05-09T03:27:19;10.45;;;6.20;;
48263;SDS011;34086;51.076;13.722;2023-05-09T03:28:22;8.98;;;6.82;;
48263;SDS011;34086;51.076;13.722;2023-05-09T03:29:22;9.07;;;6.47;;
48263;SDS011;34086;51.076;13.722;2023-05-09T03:30:23;9.05;;;6.72;;
48263;SDS011;34086;51.076;13.722;2023-05-09T03:31:24;9.95;;;6.85;;
48263;SDS011;34086;51.076;13.722;2023-05-09T03:32:25;8.02;;;6.35;;
48263;SDS011;34086;51.076;13.722;2023-05-09T03:33:26;9.25;;;6.75;;
48263;SDS011;34086;51.076;13.722;2023-05-09T03:34:28;8.48;;;6.68;;
48263;SDS011;34086;51.076;13.722;2023-05-09T03:35:28;10.70;;;6.65;;
48263;SDS011;34086;51.076;13.722;2023-05-09T03:36:29;9.40;;;6.57;;
48263;SDS011;34086;51.076;13.722;2023-05-09T03:37:31;10.70;;;6.50;;
48263;SDS011;34086;51.076;13.722;2023-05-09T03:38:31;9.35;;;6.53;;
48263;SDS011;34086;51.076;13.722;2023-05-09T03:39:32;7.80;;;6.30;;
48263;SDS011;34086;51.076;13.722;2023-05-09T03:40:33;8.32;;;6.22;;
48263;SDS011;34086;51.076;13.722;2023-05-09T03:41:40;9.45;;;6.35;;
48263;SDS011;34086;51.076;13.722;2023-05-09T03:42:41;8.27;;;6.68;;
48263;SDS011;34086;51.076;13.722;2023-05-09T03:43:43;8.52;;;6.70;;
48263;SDS011;34086;51.076;13.722;2023-05-09T03:44:45;9.00;;;6.60;;
48263;SDS011;34086;51.076;13.722;2023-05-09T03:45:46;10.48;;;6.72;;
48263;SDS011;34086;51.076;13.722;2023-05-09T03:46:48;8.45;;;6.47;;
48263;SDS011;34086;51.076;13.722;2023-05-09T03:47:49;8.70;;;6.30;;
48263;SDS011;34086;51.076;13.722;2023-05-09T03:48:50;9.05;;;5.95;;
48263;SDS011;34086;51.076;13.722;2023-05-09T03:49:51;7.93;;;6.13;;
48263;SDS011;34086;51.076;13.722;2023-05-09T03:50:54;12.65;;;6.55;;
48263;SDS011;34086;51.076;13.722;2023-05-09T03:51:57;8.40;;;6.22;;
48263;SDS011;34086;51.076;13.722;2023-05-09T03:52:59;12.70;;;6.30;;
48263;SDS011;34086;51.076;13.722;2023-05-09T03:54:00;8.25;;;6.72;;
48263;SDS011;34086;51.076;13.722;2023-05-09T03:55:02;10.50;;;6.60;;
48263;SDS011;34086;51.076;13.722;2023-05-09T03:56:06;11.65;;;6.53;;
48263;SDS011;34086;51.076;13.722;2023-05-09T03:57:13;10.77;;;6.28;;
48263;SDS011;34086;51.076;13.722;2023-05-09T03:58:13;7.47;;;5.95;;
48263;SDS011;34086;51.076;13.722;2023-05-09T03:59:16;10.52;;;6.40;;
48263;SDS011;34086;51.076;13.722;2023-05-09T04:00:17;9.68;;;6.28;;
48263;SDS011;34086;51.076;13.722;2023-05-09T04:01:28;8.85;;;6.32;;
48263;SDS011;34086;51.076;13.722;2023-05-09T04:02:32;8.85;;;6.07;;
48263;SDS011;34086;51.076;13.722;2023-05-09T04:03:33;7.88;;;6.20;;
48263;SDS011;34086;51.076;13.722;2023-05-09T04:04:34;8.38;;;6.15;;
48263;SDS011;34086;51.076;13.722;2023-05-09T04:05:35;8.82;;;6.40;;
48263;SDS011;34086;51.076;13.722;2023-05-09T04:06:38;7.20;;;6.10;;
48263;SDS011;34086;51.076;13.722;2023-05-09T04:07:41;10.48;;;6.30;;
48263;SDS011;34086;51.076;13.722;2023-05-09T04:08:42;8.55;;;5.97;;
48263;SDS011;34086;51.076;13.722;2023-05-09T04:09:43;9.20;;;6.15;;
48263;SDS011;34086;51.076;13.722;2023-05-09T04:10:44;8.40;;;6.18;;
48263;SDS011;34086;51.076;13.722;2023-05-09T04:11:44;8.57;;;6.10;;
48263;SDS011;34086;51.076;13.722;2023-05-09T04:12:47;7.55;;;5.80;;
48263;SDS011;34086;51.076;13.722;2023-05-09T04:13:49;7.78;;;5.80;;
48263;SDS011;34086;51.076;13.722;2023-05-09T04:15:01;7.38;;;5.60;;
48263;SDS011;34086;51.076;13.722;2023-05-09T04:16:03;9.32;;;5.97;;
48263;SDS011;34086;51.076;13.722;2023-05-09T04:17:06;7.25;;;5.40;;
48263;SDS011;34086;51.076;13.722;2023-05-09T04:18:06;7.75;;;5.18;;
48263;SDS011;34086;51.076;13.722;2023-05-09T04:19:07;9.20;;;5.20;;
48263;SDS011;34086;51.076;13.722;2023-05-09T04:20:09;6.53;;;5.18;;
48263;SDS011;34086;51.076;13.722;2023-05-09T04:21:10;7.63;;;5.07;;
48263;SDS011;34086;51.076;13.722;2023-05-09T04:22:12;6.50;;;4.57;;
48263;SDS011;34086;51.076;13.722;2023-05-09T04:23:12;7.45;;;4.72;;
48263;SDS011;34086;51.076;13.722;2023-05-09T04:24:13;5.03;;;4.45;;
48263;SDS011;34086;51.076;13.722;2023-05-09T04:25:19;8.30;;;4.93;;
48263;SDS011;34086;51.076;13.722;2023-05-09T04:26:21;7.95;;;4.75;;
48263;SDS011;34086;51.076;13.722;2023-05-09T04:27:26;6.28;;;4.57;;
48263;SDS011;34086;51.076;13.722;2023-05-09T04:28:27;5.10;;;4.60;;
48263;SDS011;34086;51.076;13.722;2023-05-09T04:29:29;9.40;;;5.60;;
48263;SDS011;34086;51.076;13.722;2023-05-09T04:30:30;7.82;;;5.32;;
48263;SDS011;34086;51.076;13.722;2023-05-09T04:31:31;6.85;;;5.28;;
48263;SDS011;34086;51.076;13.722;2023-05-09T04:32:32;6.45;;;4.93;;
48263;SDS011;34086;51.076;13.722;2023-05-09T04:33:34;9.10;;;5.82;;
48263;SDS011;34086;51.076;13.722;2023-05-09T04:34:37;6.70;;;4.93;;
48263;SDS011;34086;51.076;13.722;2023-05-09T04:35:45;9.65;;;6.38;;
48263;SDS011;34086;51.076;13.722;2023-05-09T04:36:46;7.13;;;5.13;;
48263;SDS011;34086;51.076;13.722;2023-05-09T04:37:47;7.47;;;5.10;;
48263;SDS011;34086;51.076;13.722;2023-05-09T04:38:47;6.40;;;4.93;;
48263;SDS011;34086;51.076;13.722;2023-05-09T04:39:51;6.78;;;5.20;;
48263;SDS011;34086;51.076;13.722;2023-05-09T04:41:00;6.50;;;4.68;;
48263;SDS011;34086;51.076;13.722;2023-05-09T04:42:01;7.43;;;4.90;;
48263;SDS011;34086;51.076;13.722;2023-05-09T04:43:03;6.28;;;4.60;;
48263;SDS011;34086;51.076;13.722;2023-05-09T04:44:05;6.47;;;4.75;;
48263;SDS011;34086;51.076;13.722;2023-05-09T04:45:05;5.88;;;4.05;;
48263;SDS011;34086;51.076;13.722;2023-05-09T04:46:06;6.18;;;4.75;;
48263;SDS011;34086;51.076;13.722;2023-05-09T04:47:08;7.22;;;4.32;;
48263;SDS011;34086;51.076;13.722;2023-05-09T04:48:08;7.05;;;4.20;;
48263;SDS011;34086;51.076;13.722;2023-05-09T04:49:09;5.72;;;4.28;;
48263;SDS011;34086;51.076;13.722;2023-05-09T04:50:10;10.32;;;4.80;;
48263;SDS011;34086;51.076;13.722;2023-05-09T04:51:10;14.27;;;8.90;;
48263;SDS011;34086;51.076;13.722;2023-05-09T04:52:11;9.88;;;6.90;;
48263;SDS011;34086;51.076;13.722;2023-05-09T04:53:12;7.47;;;5.75;;
48263;SDS011;34086;51.076;13.722;2023-05-09T04:54:13;7.00;;;5.00;;
48263;SDS011;34086;51.076;13.722;2023-05-09T04:55:14;6.93;;;4.95;;
48263;SDS011;34086;51.076;13.722;2023-05-09T04:56:18;8.88;;;4.45;;
48263;SDS011;34086;51.076;13.722;2023-05-09T04:57:20;6.18;;;4.50;;
48263;SDS011;34086;51.076;13.722;2023-05-09T04:58:26;7.00;;;4.35;;
48263;SDS011;34086;51.076;13.722;2023-05-09T04:59:30;7.00;;;4.38;;
48263;SDS011;34086;51.076;13.722;2023-05-09T05:00:30;7.88;;;4.30;;
48263;SDS011;34086;51.076;13.722;2023-05-09T05:01:31;7.15;;;4.53;;
48263;SDS011;34086;51.076;13.722;2023-05-09T05:02:33;7.00;;;4.38;;
48263;SDS011;34086;51.076;13.722;2023-05-09T05:03:34;7.43;;;4.32;;
48263;SDS011;34086;51.076;13.722;2023-05-09T05:04:34;6.88;;;4.78;;
48263;SDS011;34086;51.076;13.722;2023-05-09T05:05:35;6.13;;;4.10;;
48263;SDS011;34086;51.076;13.722;2023-05-09T05:06:36;6.68;;;4.20;;
48263;SDS011;34086;51.076;13.722;2023-05-09T05:07:37;7.68;;;4.65;;
48263;SDS011;34086;51.076;13.722;2023-05-09T05:08:38;6.53;;;4.28;;
48263;SDS011;34086;51.076;13.722;2023-05-09T05:09:39;4.95;;;3.90;;
48263;SDS011;34086;51.076;13.722;2023-05-09T05:10:40;4.50;;;3.80;;
48263;SDS011;34086;51.076;13.722;2023-05-09T05:11:43;4.95;;;3.75;;
48263;SDS011;34086;51.076;13.722;2023-05-09T05:12:44;7.68;;;4.60;;
48263;SDS011;34086;51.076;13.722;2023-05-09T05:13:47;8.30;;;4.32;;
48263;SDS011;34086;51.076;13.722;2023-05-09T05:14:47;6.45;;;4.97;;
48263;SDS011;34086;51.076;13.722;2023-05-09T05:15:51;7.88;;;4.55;;
48263;SDS011;34086;51.076;13.722;2023-05-09T05:16:54;6.72;;;4.10;;
48263;SDS011;34086;51.076;13.722;2023-05-09T05:17:56;6.32;;;4.43;;
48263;SDS011;34086;51.076;13.722;2023-05-09T05:19:04;7.13;;;4.43;;
48263;SDS011;34086;51.076;13.722;2023-05-09T05:20:09;6.68;;;4.50;;
48263;SDS011;34086;51.076;13.722;2023-05-09T05:21:14;6.00;;;3.90;;
48263;SDS011;34086;51.076;13.722;2023-05-09T05:22:16;7.47;;;4.18;;
48263;SDS011;34086;51.076;13.722;2023-05-09T05:23:19;6.57;;;4.53;;
48263;SDS011;34086;51.076;13.722;2023-05-09T05:24:19;5.68;;;4.70;;
48263;SDS011;34086;51.076;13.722;2023-05-09T05:25:20;7.72;;;4.78;;
48263;SDS011;34086;51.076;13.722;2023-05-09T05:26:24;8.32;;;4.70;;
48263;SDS011;34086;51.076;13.722;2023-05-09T05:27:25;7.15;;;4.78;;
48263;SDS011;34086;51.076;13.722;2023-05-09T05:28:26;6.53;;;4.30;;
48263;SDS011;34086;51.076;13.722;2023-05-09T05:29:26;5.95;;;4.50;;
48263;SDS011;34086;51.076;13.722;2023-05-09T05:30:27;8.00;;;4.63;;
48263;SDS011;34086;51.076;13.722;2023-05-09T05:31:27;6.40;;;4.07;;
48263;SDS011;34086;51.076;13.722;2023-05-09T05:32:28;6.68;;;4.20;;
48263;SDS011;34086;51.076;13.722;2023-05-09T05:33:29;6.65;;;4.25;;
48263;SDS011;34086;51.076;13.722;2023-05-09T05:34:30;7.05;;;4.60;;
48263;SDS011;34086;51.076;13.722;2023-05-09T05:35:30;5.40;;;4.25;;
48263;SDS011;34086;51.076;13.722;2023-05-09T05:36:31;6.97;;;4.57;;
48263;SDS011;34086;51.076;13.722;2023-05-09T05:37:32;8.25;;;4.40;;
48263;SDS011;34086;51.076;13.722;2023-05-09T05:38:33;5.45;;;4.55;;
48263;SDS011;34086;51.076;13.722;2023-05-09T05:39:33;7.00;;;4.80;;
48263;SDS011;34086;51.076;13.722;2023-05-09T05:40:34;7.43;;;4.38;;
48263;SDS011;34086;51.076;13.722;2023-05-09T05:41:37;6.57;;;4.40;;
48263;SDS011;34086;51.076;13.722;2023-05-09T05:42:39;6.03;;;4.47;;
48263;SDS011;34086;51.076;13.722;2023-05-09T05:43:40;8.02;;;4.60;;
48263;SDS011;34086;51.076;13.722;2023-05-09T05:44:41;5.85;;;4.28;;
48263;SDS011;34086;51.076;13.722;2023-05-09T05:45:42;6.40;;;4.05;;
48263;SDS011;34086;51.076;13.722;2023-05-09T05:46:47;5.95;;;4.55;;
48263;SDS011;34086;51.076;13.722;2023-05-09T05:47:48;5.72;;;4.20;;
48263;SDS011;34086;51.076;13.722;2023-05-09T05:48:48;5.18;;;4.40;;
48263;SDS011;34086;51.076;13.722;2023-05-09T05:49:49;7.03;;;4.53;;
48263;SDS011;34086;51.076;13.722;2023-05-09T05:50:50;8.98;;;4.30;;
48263;SDS011;34086;51.076;13.722;2023-05-09T05:51:54;7.72;;;4.35;;
48263;SDS011;34086;51.076;13.722;2023-05-09T05:52:55;11.20;;;8.13;;
48263;SDS011;34086;51.076;13.722;2023-05-09T05:53:56;10.18;;;5.38;;
48263;SDS011;34086;51.076;13.722;2023-05-09T05:54:58;9.18;;;4.50;;
48263;SDS011;34086;51.076;13.722;2023-05-09T05:55:58;6.65;;;4.55;;
48263;SDS011;34086;51.076;13.722;2023-05-09T05:56:59;6.65;;;4.13;;
48263;SDS011;34086;51.076;13.722;2023-05-09T05:58:00;9.15;;;4.32;;
48263;SDS011;34086;51.076;13.722;2023-05-09T05:59:00;8.43;;;4.47;;
48263;SDS011;34086;51.076;13.722;2023-05-09T06:00:01;6.38;;;4.45;;
48263;SDS011;34086;51.076;13.722;2023-05-09T06:01:13;6.53;;;4.60;;
48263;SDS011;34086;51.076;13.722;2023-05-09T06:02:15;6.13;;;4.32;;
48263;SDS011;34086;51.076;13.722;2023-05-09T06:03:16;9.98;;;4.97;;
48263;SDS011;34086;51.076;13.722;2023-05-09T06:04:28;6.97;;;5.00;;
48263;SDS011;34086;51.076;13.722;2023-05-09T06:05:28;6.53;;;4.68;;
48263;SDS011;34086;51.076;13.722;2023-05-09T06:06:29;8.80;;;4.70;;
48263;SDS011;34086;51.076;13.722;2023-05-09T06:07:31;7.00;;;4.70;;
48263;SDS011;34086;51.076;13.722;2023-05-09T06:08:31;5.97;;;4.57;;
48263;SDS011;34086;51.076;13.722;2023-05-09T06:09:32;8.90;;;4.80;;
48263;SDS011;34086;51.076;13.722;2023-05-09T06:10:32;5.85;;;4.57;;
48263;SDS011;34086;51.076;13.722;2023-05-09T06:11:33;5.72;;;4.68;;
48263;SDS011;34086;51.076;13.722;2023-05-09T06:12:34;7.15;;;4.90;;